createdAt,value
2018-02-04T00:00:24.757Z,2.76
2018-02-04T00:01:24.784Z,2.75
2018-02-04T00:02:24.692Z,2.77
2018-02-04T00:03:24.788Z,2.75
2018-02-04T00:04:24.777Z,2.73
2018-02-04T00:05:24.682Z,2.73
2018-02-04T00:06:24.675Z,2.72
2018-02-04T00:07:24.694Z,2.71
2018-02-04T00:08:24.772Z,2.71
2018-02-04T00:09:24.765Z,2.69
2018-02-04T00:10:24.813Z,2.66
2018-02-04T00:11:24.651Z,2.69
2018-02-04T00:12:25.208Z,2.69
2018-02-04T00:13:24.739Z,2.66
2018-02-04T00:14:24.829Z,2.65
2018-02-04T00:15:24.713Z,2.64
2018-02-04T00:16:24.722Z,2.62
2018-02-04T00:17:24.726Z,2.62
2018-02-04T00:18:24.765Z,2.64
2018-02-04T00:19:24.700Z,2.62
2018-02-04T00:20:24.828Z,2.59
2018-02-04T00:21:24.733Z,2.59
2018-02-04T00:22:24.844Z,2.59
2018-02-04T00:23:24.807Z,2.58
2018-02-04T00:24:24.793Z,2.59
2018-02-04T00:25:24.778Z,2.58
2018-02-04T00:26:24.697Z,2.59
2018-02-04T00:27:24.739Z,2.56
2018-02-04T00:28:24.804Z,2.58
2018-02-04T00:29:24.942Z,2.61
2018-02-04T00:30:24.999Z,2.62
2018-02-04T00:31:24.924Z,2.61
2018-02-04T00:32:24.905Z,2.58
2018-02-04T00:33:24.830Z,2.61
2018-02-04T00:34:24.889Z,2.58
2018-02-04T00:35:24.933Z,2.54
2018-02-04T00:36:24.834Z,2.54
2018-02-04T00:37:24.896Z,2.52
2018-02-04T00:38:24.923Z,2.52
2018-02-04T00:39:24.916Z,2.49
2018-02-04T00:40:24.928Z,2.48
2018-02-04T00:41:24.905Z,2.47
2018-02-04T00:42:24.930Z,2.47
2018-02-04T00:43:24.943Z,2.48
2018-02-04T00:44:24.864Z,2.45
2018-02-04T00:45:24.920Z,2.44
2018-02-04T00:46:24.968Z,2.43
2018-02-04T00:47:24.952Z,2.43
2018-02-04T00:48:24.888Z,2.4
2018-02-04T00:49:24.910Z,2.4
2018-02-04T00:50:24.893Z,2.38
2018-02-04T00:51:24.848Z,2.37
2018-02-04T00:52:24.896Z,2.37
2018-02-04T00:53:24.802Z,2.36
2018-02-04T00:54:24.910Z,2.38
2018-02-04T00:55:24.893Z,2.38
2018-02-04T00:56:24.805Z,2.4
2018-02-04T00:57:24.828Z,2.41
2018-02-04T00:58:24.862Z,2.4
2018-02-04T00:59:24.881Z,2.38
2018-02-04T01:00:25.083Z,2.4
2018-02-04T01:01:25.050Z,2.38
2018-02-04T01:02:24.978Z,2.43
2018-02-04T01:03:24.985Z,2.44
2018-02-04T01:04:25.069Z,2.44
2018-02-04T01:05:25.038Z,2.44
2018-02-04T01:06:25.184Z,2.45
2018-02-04T01:07:24.943Z,2.48
2018-02-04T01:08:24.918Z,2.45
2018-02-04T01:09:24.983Z,2.44
2018-02-04T01:10:25.035Z,2.48
2018-02-04T01:11:25.014Z,2.45
2018-02-04T01:12:25.059Z,2.45
2018-02-04T01:13:25.012Z,2.44
2018-02-04T01:14:25.055Z,2.45
2018-02-04T01:15:25.132Z,2.43
2018-02-04T01:16:25.653Z,2.41
2018-02-04T01:17:24.969Z,2.41
2018-02-04T01:18:25.000Z,2.4
2018-02-04T01:19:25.044Z,2.4
2018-02-04T01:20:25.005Z,2.36
2018-02-04T01:21:25.325Z,2.36
2018-02-04T01:22:24.988Z,2.33
2018-02-04T01:23:24.994Z,2.34
2018-02-04T01:24:24.901Z,2.36
2018-02-04T01:25:25.072Z,2.37
2018-02-04T01:26:24.977Z,2.36
2018-02-04T01:27:24.975Z,2.38
2018-02-04T01:28:24.948Z,2.31
2018-02-04T01:29:24.932Z,2.33
2018-02-04T01:30:24.981Z,2.31
2018-02-04T01:31:25.104Z,2.33
2018-02-04T01:32:25.056Z,2.33
2018-02-04T01:33:25.122Z,2.36
2018-02-04T01:34:25.057Z,2.36
2018-02-04T01:35:25.062Z,2.34
2018-02-04T01:36:25.153Z,2.36
2018-02-04T01:37:25.190Z,2.36
2018-02-04T01:38:25.143Z,2.34
2018-02-04T01:39:25.139Z,2.36
2018-02-04T01:40:25.100Z,2.34
2018-02-04T01:41:25.018Z,2.34
2018-02-04T01:42:25.035Z,2.31
2018-02-04T01:43:25.096Z,2.34
2018-02-04T01:44:25.086Z,2.34
2018-02-04T01:45:25.213Z,2.31
2018-02-04T01:46:25.127Z,2.33
2018-02-04T01:47:25.105Z,2.34
2018-02-04T01:48:25.073Z,2.33
2018-02-04T01:49:25.128Z,2.34
2018-02-04T01:50:25.101Z,2.33
2018-02-04T01:51:25.160Z,2.33
2018-02-04T01:52:25.133Z,2.31
2018-02-04T01:53:25.121Z,2.3
2018-02-04T01:54:25.038Z,2.31
2018-02-04T01:55:25.122Z,2.28
2018-02-04T01:56:25.135Z,2.27
2018-02-04T01:57:25.089Z,2.26
2018-02-04T01:58:25.080Z,2.26
2018-02-04T01:59:25.137Z,2.24
2018-02-04T02:00:25.125Z,2.22
2018-02-04T02:01:25.300Z,2.22
2018-02-04T02:02:25.161Z,2.2
2018-02-04T02:03:25.178Z,2.24
2018-02-04T02:04:25.164Z,2.24
2018-02-04T02:05:25.198Z,2.26
2018-02-04T02:06:25.451Z,2.26
2018-02-04T02:07:25.155Z,2.24
2018-02-04T02:08:25.236Z,2.22
2018-02-04T02:09:25.238Z,2.2
2018-02-04T02:10:25.184Z,2.2
2018-02-04T02:11:25.339Z,2.18
2018-02-04T02:12:25.205Z,2.2
2018-02-04T02:13:25.212Z,2.18
2018-02-04T02:14:25.304Z,2.21
2018-02-04T02:15:25.179Z,2.2
2018-02-04T02:16:25.212Z,2.18
2018-02-04T02:17:25.205Z,2.17
2018-02-04T02:18:25.231Z,2.18
2018-02-04T02:19:25.217Z,2.2
2018-02-04T02:20:25.253Z,2.21
2018-02-04T02:21:25.121Z,2.22
2018-02-04T02:22:25.161Z,2.26
2018-02-04T02:23:25.216Z,2.24
2018-02-04T02:24:25.257Z,2.21
2018-02-04T02:25:25.160Z,2.22
2018-02-04T02:26:25.172Z,2.26
2018-02-04T02:27:25.222Z,2.22
2018-02-04T02:28:25.180Z,2.24
2018-02-04T02:29:25.192Z,2.27
2018-02-04T02:30:25.270Z,2.27
2018-02-04T02:31:25.429Z,2.26
2018-02-04T02:32:25.319Z,2.26
2018-02-04T02:33:25.339Z,2.27
2018-02-04T02:34:25.351Z,2.28
2018-02-04T02:35:25.322Z,2.28
2018-02-04T02:36:25.343Z,2.27
2018-02-04T02:37:25.423Z,2.27
2018-02-04T02:38:25.369Z,2.28
2018-02-04T02:39:25.290Z,2.28
2018-02-04T02:40:25.348Z,2.28
2018-02-04T02:41:25.422Z,2.28
2018-02-04T02:42:25.301Z,2.28
2018-02-04T02:43:25.391Z,2.31
2018-02-04T02:44:25.397Z,2.28
2018-02-04T02:45:25.290Z,2.26
2018-02-04T02:46:25.327Z,2.28
2018-02-04T02:47:25.403Z,2.3
2018-02-04T02:48:25.262Z,2.31
2018-02-04T02:49:25.248Z,2.28
2018-02-04T02:50:25.379Z,2.3
2018-02-04T02:51:25.309Z,2.28
2018-02-04T02:52:25.473Z,2.31
2018-02-04T02:53:25.233Z,2.28
2018-02-04T02:54:25.294Z,2.3
2018-02-04T02:55:25.345Z,2.3
2018-02-04T02:56:25.281Z,2.3
2018-02-04T02:57:25.386Z,2.3
2018-02-04T02:58:25.307Z,2.3
2018-02-04T02:59:25.328Z,2.33
2018-02-04T03:00:25.641Z,2.34
2018-02-04T03:01:24.654Z,2.31
2018-02-04T03:02:24.655Z,2.34
2018-02-04T03:03:24.604Z,2.33
2018-02-04T03:04:24.646Z,2.33
2018-02-04T03:05:24.650Z,2.31
2018-02-04T03:06:24.622Z,2.31
2018-02-04T03:07:24.610Z,2.31
2018-02-04T03:08:24.613Z,2.3
2018-02-04T03:09:24.588Z,2.31
2018-02-04T03:10:24.637Z,2.34
2018-02-04T03:11:24.631Z,2.33
2018-02-04T03:12:24.945Z,2.36
2018-02-04T03:13:25.242Z,2.31
2018-02-04T03:14:24.671Z,2.34
2018-02-04T03:15:24.628Z,2.34
2018-02-04T03:16:24.785Z,2.37
2018-02-04T03:17:24.576Z,2.37
2018-02-04T03:18:24.669Z,2.36
2018-02-04T03:19:24.610Z,2.36
2018-02-04T03:20:24.550Z,2.33
2018-02-04T03:21:24.688Z,2.34
2018-02-04T03:22:24.591Z,2.34
2018-02-04T03:23:24.663Z,2.31
2018-02-04T03:24:24.783Z,2.33
2018-02-04T03:25:24.667Z,2.36
2018-02-04T03:26:24.644Z,2.33
2018-02-04T03:27:24.661Z,2.33
2018-02-04T03:28:24.613Z,2.34
2018-02-04T03:29:24.760Z,2.33
2018-02-04T03:30:24.663Z,2.33
2018-02-04T03:31:24.694Z,2.34
2018-02-04T03:32:24.745Z,2.31
2018-02-04T03:33:24.759Z,2.31
2018-02-04T03:34:24.776Z,2.33
2018-02-04T03:35:25.686Z,2.33
2018-02-04T03:36:24.680Z,2.31
2018-02-04T03:37:24.658Z,2.33
2018-02-04T03:38:24.795Z,2.31
2018-02-04T03:39:24.646Z,2.33
2018-02-04T03:40:24.678Z,2.33
2018-02-04T03:41:24.732Z,2.3
2018-02-04T03:42:24.720Z,2.31
2018-02-04T03:43:24.637Z,2.31
2018-02-04T03:44:24.791Z,2.31
2018-02-04T03:45:24.664Z,2.33
2018-02-04T03:46:24.737Z,2.3
2018-02-04T03:47:24.657Z,2.3
2018-02-04T03:48:24.638Z,2.31
2018-02-04T03:49:24.672Z,2.31
2018-02-04T03:50:24.634Z,2.3
2018-02-04T03:51:24.706Z,2.3
2018-02-04T03:52:24.684Z,2.31
2018-02-04T03:53:24.681Z,2.31
2018-02-04T03:54:24.713Z,2.27
2018-02-04T03:55:24.800Z,2.31
2018-02-04T03:56:24.774Z,2.28
2018-02-04T03:57:24.616Z,2.3
2018-02-04T03:58:24.715Z,2.3
2018-02-04T03:59:24.685Z,2.28
2018-02-04T04:00:24.794Z,2.31
2018-02-04T04:01:24.666Z,2.33
2018-02-04T04:02:24.655Z,2.33
2018-02-04T04:03:24.672Z,2.31
2018-02-04T04:04:24.705Z,2.33
2018-02-04T04:05:24.698Z,2.33
2018-02-04T04:06:24.683Z,2.36
2018-02-04T04:07:24.729Z,2.34
2018-02-04T04:08:24.709Z,2.36
2018-02-04T04:09:24.756Z,2.38
2018-02-04T04:10:24.709Z,2.37
2018-02-04T04:11:24.737Z,2.36
2018-02-04T04:12:24.648Z,2.36
2018-02-04T04:13:24.638Z,2.33
2018-02-04T04:14:24.723Z,2.34
2018-02-04T04:15:24.653Z,2.36
2018-02-04T04:16:24.667Z,2.34
2018-02-04T04:17:24.729Z,2.31
2018-02-04T04:18:24.838Z,2.31
2018-02-04T04:19:24.625Z,2.31
2018-02-04T04:20:24.712Z,2.36
2018-02-04T04:21:24.624Z,2.33
2018-02-04T04:22:24.676Z,2.33
2018-02-04T04:23:24.658Z,2.36
2018-02-04T04:24:24.596Z,2.36
2018-02-04T04:25:24.707Z,2.34
2018-02-04T04:26:24.631Z,2.37
2018-02-04T04:27:24.563Z,2.38
2018-02-04T04:28:24.723Z,2.37
2018-02-04T04:29:24.775Z,2.36
2018-02-04T04:30:24.720Z,2.37
2018-02-04T04:31:24.721Z,2.36
2018-02-04T04:32:24.674Z,2.34
2018-02-04T04:33:24.751Z,2.34
2018-02-04T04:34:24.826Z,2.34
2018-02-04T04:35:24.857Z,2.36
2018-02-04T04:38:24.775Z,2.36
2018-02-04T04:39:24.791Z,2.34
2018-02-04T04:40:24.745Z,2.36
2018-02-04T04:41:24.852Z,2.34
2018-02-04T04:42:24.813Z,2.34
2018-02-04T04:43:24.819Z,2.34
2018-02-04T04:44:24.768Z,2.34
2018-02-04T04:45:24.843Z,2.36
2018-02-04T04:46:24.814Z,2.37
2018-02-04T04:47:24.870Z,2.36
2018-02-04T04:48:24.760Z,2.36
2018-02-04T04:49:24.780Z,2.36
2018-02-04T04:50:24.789Z,2.34
2018-02-04T04:51:24.827Z,2.34
2018-02-04T04:52:24.847Z,2.34
2018-02-04T04:53:24.730Z,2.34
2018-02-04T04:54:24.839Z,2.34
2018-02-04T04:55:24.819Z,2.34
2018-02-04T04:56:24.704Z,2.34
2018-02-04T04:57:24.804Z,2.33
2018-02-04T04:58:24.835Z,2.33
2018-02-04T04:59:24.817Z,2.33
2018-02-04T05:00:24.767Z,2.31
2018-02-04T05:01:24.761Z,2.34
2018-02-04T05:02:24.811Z,2.31
2018-02-04T05:03:24.859Z,2.31
2018-02-04T05:04:24.893Z,2.3
2018-02-04T05:05:24.831Z,2.28
2018-02-04T05:06:24.814Z,2.26
2018-02-04T05:07:24.905Z,2.22
2018-02-04T05:08:24.975Z,2.21
2018-02-04T05:09:24.945Z,2.21
2018-02-04T05:10:24.980Z,2.2
2018-02-04T05:11:24.884Z,2.21
2018-02-04T05:12:24.945Z,2.22
2018-02-04T05:14:24.892Z,2.2
2018-02-04T05:15:24.849Z,2.2
2018-02-04T05:16:24.925Z,2.21
2018-02-04T05:17:24.925Z,2.21
2018-02-04T05:18:24.825Z,2.22
2018-02-04T05:19:24.929Z,2.22
2018-02-04T05:20:24.978Z,2.24
2018-02-04T05:21:24.896Z,2.24
2018-02-04T05:22:24.887Z,2.26
2018-02-04T05:23:24.971Z,2.24
2018-02-04T05:24:24.918Z,2.22
2018-02-04T05:25:24.940Z,2.24
2018-02-04T05:26:24.933Z,2.28
2018-02-04T05:27:24.851Z,2.27
2018-02-04T05:28:24.849Z,2.27
2018-02-04T05:29:24.912Z,2.28
2018-02-04T05:30:24.814Z,2.31
2018-02-04T05:31:24.981Z,2.28
2018-02-04T05:32:24.856Z,2.31
2018-02-04T05:33:24.944Z,2.3
2018-02-04T05:34:25.118Z,2.27
2018-02-04T05:35:25.010Z,2.28
2018-02-04T05:36:25.057Z,2.3
2018-02-04T05:37:25.004Z,2.31
2018-02-04T05:38:25.067Z,2.33
2018-02-04T05:39:25.129Z,2.31
2018-02-04T05:40:25.046Z,2.31
2018-02-04T05:41:24.950Z,2.33
2018-02-04T05:42:25.001Z,2.31
2018-02-04T05:43:24.984Z,2.34
2018-02-04T05:44:25.074Z,2.36
2018-02-04T05:45:25.251Z,2.36
2018-02-04T05:46:24.982Z,2.34
2018-02-04T05:47:25.051Z,2.37
2018-02-04T05:48:25.002Z,2.37
2018-02-04T05:49:25.003Z,2.36
2018-02-04T05:50:25.130Z,2.37
2018-02-04T05:51:24.996Z,2.37
2018-02-04T05:52:25.032Z,2.37
2018-02-04T05:53:25.048Z,2.37
2018-02-04T05:54:25.225Z,2.36
2018-02-04T05:55:25.128Z,2.37
2018-02-04T05:56:25.032Z,2.37
2018-02-04T05:57:25.149Z,2.34
2018-02-04T05:58:25.045Z,2.37
2018-02-04T05:59:25.003Z,2.37
2018-02-04T06:00:25.308Z,2.37
2018-02-04T06:01:25.002Z,2.38
2018-02-04T06:02:25.075Z,2.34
2018-02-04T06:03:25.068Z,2.38
2018-02-04T06:04:25.168Z,2.34
2018-02-04T06:05:25.086Z,2.36
2018-02-04T06:06:25.250Z,2.36
2018-02-04T06:07:25.120Z,2.34
2018-02-04T06:08:25.103Z,2.34
2018-02-04T06:09:25.123Z,2.33
2018-02-04T06:10:25.140Z,2.33
2018-02-04T06:11:25.111Z,2.34
2018-02-04T06:12:25.140Z,2.36
2018-02-04T06:13:25.061Z,2.36
2018-02-04T06:14:25.039Z,2.36
2018-02-04T06:15:25.025Z,2.37
2018-02-04T06:16:25.069Z,2.38
2018-02-04T06:17:25.116Z,2.36
2018-02-04T06:18:25.129Z,2.36
2018-02-04T06:19:25.128Z,2.36
2018-02-04T06:20:25.137Z,2.38
2018-02-04T06:21:25.120Z,2.36
2018-02-04T06:22:25.063Z,2.37
2018-02-04T06:23:25.135Z,2.38
2018-02-04T06:24:25.154Z,2.37
2018-02-04T06:25:25.239Z,2.38
2018-02-04T06:26:25.158Z,2.38
2018-02-04T06:27:25.168Z,2.37
2018-02-04T06:28:25.093Z,2.37
2018-02-04T06:29:25.102Z,2.38
2018-02-04T06:30:25.093Z,2.38
2018-02-04T06:31:25.112Z,2.41
2018-02-04T06:32:25.141Z,2.4
2018-02-04T06:33:25.141Z,2.38
2018-02-04T06:34:25.144Z,2.37
2018-02-04T06:35:25.338Z,2.4
2018-02-04T06:36:25.150Z,2.38
2018-02-04T06:37:25.220Z,2.37
2018-02-04T06:38:25.301Z,2.37
2018-02-04T06:39:25.287Z,2.4
2018-02-04T06:40:25.335Z,2.4
2018-02-04T06:41:25.245Z,2.38
2018-02-04T06:42:25.267Z,2.38
2018-02-04T06:43:25.332Z,2.37
2018-02-04T06:44:25.226Z,2.38
2018-02-04T06:45:25.385Z,2.4
2018-02-04T06:46:25.277Z,2.37
2018-02-04T06:47:25.216Z,2.37
2018-02-04T06:48:25.285Z,2.38
2018-02-04T06:49:25.324Z,2.34
2018-02-04T06:50:25.280Z,2.36
2018-02-04T06:51:25.301Z,2.34
2018-02-04T06:52:25.211Z,2.34
2018-02-04T06:53:25.247Z,2.33
2018-02-04T06:54:25.165Z,2.33
2018-02-04T06:55:25.178Z,2.37
2018-02-04T06:56:25.268Z,2.33
2018-02-04T06:57:25.348Z,2.34
2018-02-04T06:58:25.243Z,2.33
2018-02-04T06:59:25.471Z,2.33
2018-02-04T07:00:25.233Z,2.33
2018-02-04T07:01:25.303Z,2.33
2018-02-04T07:02:25.269Z,2.36
2018-02-04T07:03:25.267Z,2.36
2018-02-04T07:04:25.297Z,2.4
2018-02-04T07:05:25.327Z,2.38
2018-02-04T07:06:25.354Z,2.4
2018-02-04T07:07:25.328Z,2.41
2018-02-04T07:08:25.425Z,2.41
2018-02-04T07:09:25.321Z,2.4
2018-02-04T07:10:25.313Z,2.41
2018-02-04T07:11:25.388Z,2.43
2018-02-04T07:12:25.414Z,2.43
2018-02-04T07:13:25.287Z,2.44
2018-02-04T07:14:25.442Z,2.44
2018-02-04T07:15:25.356Z,2.47
2018-02-04T07:16:25.468Z,2.45
2018-02-04T07:17:25.337Z,2.49
2018-02-04T07:18:25.324Z,2.49
2018-02-04T07:19:25.341Z,2.49
2018-02-04T07:20:25.409Z,2.47
2018-02-04T07:21:25.257Z,2.47
2018-02-04T07:22:25.317Z,2.48
2018-02-04T07:23:25.307Z,2.48
2018-02-04T07:24:25.370Z,2.51
2018-02-04T07:25:25.324Z,2.51
2018-02-04T07:26:25.448Z,2.49
2018-02-04T07:27:25.329Z,2.49
2018-02-04T07:28:25.414Z,2.49
2018-02-04T07:29:25.284Z,2.49
2018-02-04T07:30:25.403Z,2.47
2018-02-04T07:31:25.276Z,2.47
2018-02-04T07:32:25.368Z,2.47
2018-02-04T07:33:25.395Z,2.47
2018-02-04T07:34:25.287Z,2.45
2018-02-04T07:35:25.446Z,2.45
2018-02-04T07:36:24.381Z,2.48
2018-02-04T07:37:24.427Z,2.48
2018-02-04T07:38:24.432Z,2.49
2018-02-04T07:39:24.416Z,2.48
2018-02-04T07:40:24.578Z,2.48
2018-02-04T07:41:24.481Z,2.48
2018-02-04T07:42:24.412Z,2.48
2018-02-04T07:43:24.459Z,2.47
2018-02-04T07:44:24.426Z,2.48
2018-02-04T07:45:24.470Z,2.47
2018-02-04T07:46:24.438Z,2.47
2018-02-04T07:47:24.463Z,2.47
2018-02-04T07:48:24.475Z,2.48
2018-02-04T07:49:24.406Z,2.47
2018-02-04T07:50:24.437Z,2.45
2018-02-04T07:51:24.456Z,2.48
2018-02-04T07:52:24.354Z,2.45
2018-02-04T07:53:24.736Z,2.47
2018-02-04T07:54:24.475Z,2.47
2018-02-04T07:55:24.472Z,2.45
2018-02-04T07:56:24.426Z,2.45
2018-02-04T07:57:24.474Z,2.45
2018-02-04T07:58:24.474Z,2.47
2018-02-04T07:59:24.464Z,2.47
2018-02-04T08:00:24.360Z,2.45
2018-02-04T08:01:24.451Z,2.45
2018-02-04T08:02:24.431Z,2.43
2018-02-04T08:03:24.441Z,2.45
2018-02-04T08:04:24.402Z,2.45
2018-02-04T08:05:24.425Z,2.44
2018-02-04T08:06:24.546Z,2.43
2018-02-04T08:07:24.389Z,2.43
2018-02-04T08:08:24.520Z,2.43
2018-02-04T08:09:24.478Z,2.44
2018-02-04T08:10:24.488Z,2.43
2018-02-04T08:11:24.437Z,2.44
2018-02-04T08:12:24.620Z,2.43
2018-02-04T08:13:24.678Z,2.4
2018-02-04T08:14:24.735Z,2.4
2018-02-04T08:15:24.382Z,2.37
2018-02-04T08:16:24.483Z,2.38
2018-02-04T08:17:24.551Z,2.37
2018-02-04T08:18:24.491Z,2.37
2018-02-04T08:19:24.669Z,2.34
2018-02-04T08:20:24.473Z,2.37
2018-02-04T08:21:24.488Z,2.3
2018-02-04T08:22:24.442Z,2.3
2018-02-04T08:23:24.508Z,2.3
2018-02-04T08:24:24.520Z,2.3
2018-02-04T08:25:24.488Z,2.31
2018-02-04T08:26:24.500Z,2.34
2018-02-04T08:27:24.514Z,2.33
2018-02-04T08:28:24.426Z,2.31
2018-02-04T08:29:24.388Z,2.31
2018-02-04T08:30:24.512Z,2.33
2018-02-04T08:31:24.534Z,2.33
2018-02-04T08:32:24.685Z,2.34
2018-02-04T08:33:24.498Z,2.36
2018-02-04T08:34:24.524Z,2.34
2018-02-04T08:35:24.437Z,2.37
2018-02-04T08:36:24.524Z,2.36
2018-02-04T08:37:24.544Z,2.36
2018-02-04T08:38:24.516Z,2.38
2018-02-04T08:39:24.497Z,2.34
2018-02-04T08:40:24.557Z,2.26
2018-02-04T08:41:24.509Z,2.21
2018-02-04T08:42:24.440Z,2.21
2018-02-04T08:43:24.573Z,2.2
2018-02-04T08:44:24.490Z,2.18
2018-02-04T08:45:24.743Z,2.17
2018-02-04T08:46:24.562Z,2.17
2018-02-04T08:47:24.576Z,2.13
2018-02-04T08:48:24.490Z,2.1
2018-02-04T08:49:24.601Z,2.06
2018-02-04T08:50:24.514Z,2.03
2018-02-04T08:51:24.506Z,2.03
2018-02-04T08:52:24.514Z,2.03
2018-02-04T08:53:24.570Z,1.99
2018-02-04T08:54:24.454Z,1.96
2018-02-04T08:55:24.542Z,1.94
2018-02-04T08:56:24.477Z,1.89
2018-02-04T08:57:24.500Z,1.92
2018-02-04T08:58:24.521Z,1.9
2018-02-04T08:59:24.491Z,1.86
2018-02-04T09:00:24.546Z,1.89
2018-02-04T09:01:24.539Z,1.89
2018-02-04T09:02:24.751Z,1.89
2018-02-04T09:03:24.573Z,1.9
2018-02-04T09:04:24.487Z,1.89
2018-02-04T09:05:24.567Z,1.9
2018-02-04T09:06:24.479Z,1.83
2018-02-04T09:07:24.591Z,1.86
2018-02-04T09:08:24.655Z,1.85
2018-02-04T09:09:24.656Z,1.87
2018-02-04T09:10:24.642Z,1.86
2018-02-04T09:11:24.791Z,1.86
2018-02-04T09:12:24.760Z,1.86
2018-02-04T09:13:24.587Z,1.86
2018-02-04T09:14:24.617Z,1.85
2018-02-04T09:15:24.645Z,1.87
2018-02-04T09:16:24.642Z,1.85
2018-02-04T09:17:24.714Z,1.86
2018-02-04T09:18:24.679Z,1.86
2018-02-04T09:19:24.673Z,1.85
2018-02-04T09:20:24.958Z,1.87
2018-02-04T09:21:24.779Z,1.86
2018-02-04T09:22:24.819Z,1.83
2018-02-04T09:23:24.689Z,1.76
2018-02-04T09:24:24.708Z,1.55
2018-02-04T09:25:24.787Z,1.58
2018-02-04T09:26:24.745Z,1.58
2018-02-04T09:27:24.669Z,1.58
2018-02-04T09:28:24.642Z,1.61
2018-02-04T09:29:24.776Z,1.64
2018-02-04T09:30:24.720Z,1.66
2018-02-04T09:31:24.702Z,1.66
2018-02-04T09:32:24.776Z,1.71
2018-02-04T09:33:24.902Z,1.71
2018-02-04T09:34:24.757Z,1.69
2018-02-04T09:35:24.760Z,1.73
2018-02-04T09:36:24.816Z,1.73
2018-02-04T09:37:24.704Z,1.73
2018-02-04T09:38:24.740Z,1.72
2018-02-04T09:39:24.738Z,1.71
2018-02-04T09:40:24.750Z,1.69
2018-02-04T09:41:24.635Z,1.68
2018-02-04T09:42:24.754Z,1.61
2018-02-04T09:43:24.700Z,1.65
2018-02-04T09:44:24.740Z,1.68
2018-02-04T09:45:24.742Z,1.68
2018-02-04T09:46:24.783Z,1.71
2018-02-04T09:47:24.731Z,1.71
2018-02-04T09:48:24.773Z,1.73
2018-02-04T09:49:24.753Z,1.75
2018-02-04T09:50:24.763Z,1.75
2018-02-04T09:51:24.700Z,1.73
2018-02-04T09:52:24.772Z,1.71
2018-02-04T09:53:24.768Z,1.71
2018-02-04T09:54:24.705Z,1.69
2018-02-04T09:55:25.011Z,1.71
2018-02-04T09:56:24.748Z,1.75
2018-02-04T09:57:25.002Z,1.75
2018-02-04T09:58:24.898Z,1.75
2018-02-04T09:59:24.837Z,1.73
2018-02-04T10:00:24.671Z,1.75
2018-02-04T10:01:24.697Z,1.76
2018-02-04T10:02:24.698Z,1.78
2018-02-04T10:03:24.758Z,1.65
2018-02-04T10:04:24.707Z,1.57
2018-02-04T10:05:25.186Z,1.62
2018-02-04T10:06:25.097Z,1.68
2018-02-04T10:07:25.138Z,1.69
2018-02-04T10:08:24.809Z,1.69
2018-02-04T10:09:24.754Z,1.72
2018-02-04T10:10:24.602Z,1.73
2018-02-04T10:11:24.725Z,1.69
2018-02-04T10:12:27.503Z,1.65
2018-02-04T10:13:24.645Z,1.65
2018-02-04T10:14:24.710Z,1.65
2018-02-04T10:15:24.674Z,1.71
2018-02-04T10:16:24.607Z,1.66
2018-02-04T10:17:24.676Z,1.62
2018-02-04T10:18:24.763Z,1.64
2018-02-04T10:19:24.637Z,1.57
2018-02-04T10:20:24.675Z,1.61
2018-02-04T10:21:24.694Z,1.55
2018-02-04T10:22:24.659Z,1.51
2018-02-04T10:23:24.771Z,1.55
2018-02-04T10:24:32.889Z,1.64
2018-02-04T10:25:24.772Z,1.53
2018-02-04T10:26:24.806Z,1.44
2018-02-04T10:27:24.661Z,1.31
2018-02-04T10:28:24.768Z,1.23
2018-02-04T10:29:24.713Z,1.11
2018-02-04T10:30:24.717Z,1.07
2018-02-04T10:31:24.787Z,1.03
2018-02-04T10:32:24.738Z,1.1
2018-02-04T10:33:28.906Z,1.11
2018-02-04T10:34:24.755Z,1.04
2018-02-04T10:35:24.775Z,1.03
2018-02-04T10:36:24.782Z,0.99
2018-02-04T10:37:24.680Z,0.98
2018-02-04T10:38:24.729Z,0.99
2018-02-04T10:39:24.823Z,0.95
2018-02-04T10:40:24.831Z,1
2018-02-04T10:41:24.826Z,0.96
2018-02-04T10:42:24.797Z,0.95
2018-02-04T10:43:24.837Z,0.93
2018-02-04T10:44:24.800Z,0.89
2018-02-04T10:45:24.836Z,0.98
2018-02-04T10:46:24.815Z,0.93
2018-02-04T10:47:24.806Z,0.92
2018-02-04T10:48:24.845Z,0.95
2018-02-04T10:49:24.909Z,0.92
2018-02-04T10:50:24.877Z,0.93
2018-02-04T10:51:24.913Z,0.93
2018-02-04T10:52:24.912Z,0.95
2018-02-04T10:53:24.862Z,1
2018-02-04T10:54:24.883Z,1
2018-02-04T10:55:24.866Z,1.02
2018-02-04T10:56:24.824Z,1.02
2018-02-04T10:57:24.828Z,1
2018-02-04T10:58:24.794Z,1
2018-02-04T10:59:24.834Z,1.04
2018-02-04T11:00:24.858Z,1.06
2018-02-04T11:01:24.787Z,1.09
2018-02-04T11:02:24.784Z,1.11
2018-02-04T11:03:24.802Z,1.17
2018-02-04T11:04:24.800Z,1.17
2018-02-04T11:05:24.817Z,1.2
2018-02-04T11:06:24.836Z,1.2
2018-02-04T11:07:24.794Z,1.24
2018-02-04T11:08:24.795Z,1.23
2018-02-04T11:09:24.851Z,1.26
2018-02-04T11:10:24.859Z,1.27
2018-02-04T11:11:24.893Z,1.26
2018-02-04T11:12:24.824Z,1.3
2018-02-04T11:13:24.873Z,1.27
2018-02-04T11:14:24.868Z,1.28
2018-02-04T11:15:24.908Z,1.26
2018-02-04T11:16:25.373Z,1.3
2018-02-04T11:17:25.015Z,1.3
2018-02-04T11:18:24.862Z,1.33
2018-02-04T11:19:24.937Z,1.33
2018-02-04T11:20:24.867Z,1.34
2018-02-04T11:21:24.927Z,1.37
2018-02-04T11:22:24.929Z,1.38
2018-02-04T11:23:24.940Z,1.38
2018-02-04T11:24:24.899Z,1.37
2018-02-04T11:25:24.909Z,1.41
2018-02-04T11:26:24.867Z,1.4
2018-02-04T11:27:24.865Z,1.4
2018-02-04T11:28:24.849Z,1.37
2018-02-04T11:29:24.857Z,1.37
2018-02-04T11:30:24.864Z,1.4
2018-02-04T11:31:24.963Z,1.38
2018-02-04T11:32:24.953Z,1.43
2018-02-04T11:33:24.921Z,1.48
2018-02-04T11:34:24.823Z,1.47
2018-02-04T11:35:24.830Z,1.48
2018-02-04T11:36:24.861Z,1.48
2018-02-04T11:37:24.864Z,1.5
2018-02-04T11:38:24.840Z,1.5
2018-02-04T11:39:24.947Z,1.53
2018-02-04T11:40:24.912Z,1.53
2018-02-04T11:41:24.822Z,1.51
2018-02-04T11:42:25.009Z,1.53
2018-02-04T11:43:24.648Z,1.55
2018-02-04T11:44:24.576Z,1.53
2018-02-04T11:45:24.713Z,1.55
2018-02-04T11:46:24.602Z,1.57
2018-02-04T11:47:24.768Z,1.58
2018-02-04T11:48:24.601Z,1.61
2018-02-04T11:49:24.676Z,1.61
2018-02-04T11:50:24.655Z,1.64
2018-02-04T11:51:24.591Z,1.66
2018-02-04T11:52:24.649Z,1.68
2018-02-04T11:53:24.595Z,1.68
2018-02-04T11:54:24.626Z,1.68
2018-02-04T11:55:24.591Z,1.71
2018-02-04T11:56:24.654Z,1.75
2018-02-04T11:57:24.576Z,1.75
2018-02-04T11:58:24.631Z,1.73
2018-02-04T11:59:24.596Z,1.75
2018-02-04T12:00:24.578Z,1.72
2018-02-04T12:01:24.577Z,1.76
2018-02-04T12:02:24.666Z,1.75
2018-02-04T12:03:24.576Z,1.71
2018-02-04T12:04:24.655Z,1.69
2018-02-04T12:05:25.004Z,1.69
2018-02-04T12:06:24.636Z,1.72
2018-02-04T12:07:24.675Z,1.69
2018-02-04T12:08:24.603Z,1.68
2018-02-04T12:09:24.696Z,1.71
2018-02-04T12:10:24.959Z,1.66
2018-02-04T12:11:24.619Z,1.65
2018-02-04T12:12:25.431Z,1.65
2018-02-04T12:13:25.396Z,1.62
2018-02-04T12:14:25.353Z,1.64
2018-02-04T12:15:25.352Z,1.65
2018-02-04T12:16:25.411Z,1.64
2018-02-04T12:17:25.458Z,1.58
2018-02-04T12:18:25.439Z,1.59
2018-02-04T12:19:25.779Z,1.55
2018-02-04T12:20:26.100Z,1.55
2018-02-04T12:21:25.710Z,1.57
2018-02-04T12:22:25.410Z,1.59
2018-02-04T12:23:25.386Z,1.54
2018-02-04T12:24:25.374Z,1.55
2018-02-04T12:25:25.384Z,1.54
2018-02-04T12:26:25.420Z,1.55
2018-02-04T12:27:25.412Z,1.59
2018-02-04T12:28:25.402Z,1.55
2018-02-04T12:29:25.407Z,1.58
2018-02-04T12:30:25.441Z,1.54
2018-02-04T12:31:25.746Z,1.58
2018-02-04T12:32:26.239Z,1.58
2018-02-04T12:33:25.695Z,1.59
2018-02-04T12:34:25.560Z,1.53
2018-02-04T12:35:25.658Z,1.55
2018-02-04T12:36:25.555Z,1.57
2018-02-04T12:37:25.668Z,1.5
2018-02-04T12:38:30.527Z,1.44
2018-02-04T12:39:25.656Z,1.41
2018-02-04T12:40:25.529Z,1.44
2018-02-04T12:41:25.999Z,1.44
2018-02-04T12:42:25.636Z,1.41
2018-02-04T12:43:25.236Z,1.4
2018-02-04T12:44:25.230Z,1.4
2018-02-04T12:45:25.153Z,1.38
2018-02-04T12:46:25.201Z,1.4
2018-02-04T12:47:25.155Z,1.43
2018-02-04T12:48:25.223Z,1.37
2018-02-04T12:49:25.123Z,1.41
2018-02-04T12:50:25.252Z,1.4
2018-02-04T12:51:25.152Z,1.38
2018-02-04T12:52:25.203Z,1.38
2018-02-04T12:53:25.304Z,1.38
2018-02-04T12:54:25.449Z,1.34
2018-02-04T12:55:25.263Z,1.38
2018-02-04T12:56:25.270Z,1.36
2018-02-04T12:57:25.379Z,1.36
2018-02-04T12:58:25.167Z,1.34
2018-02-04T12:59:25.310Z,1.34
2018-02-04T13:00:25.357Z,1.31
2018-02-04T13:01:25.276Z,1.37
2018-02-04T13:02:25.355Z,1.37
2018-02-04T13:03:25.458Z,1.37
2018-02-04T13:04:25.218Z,1.38
2018-02-04T13:05:25.175Z,1.41
2018-02-04T13:06:25.372Z,1.37
2018-02-04T13:07:25.266Z,1.43
2018-02-04T13:08:25.193Z,1.41
2018-02-04T13:09:25.245Z,1.38
2018-02-04T13:10:25.365Z,1.38
2018-02-04T13:11:25.248Z,1.36
2018-02-04T13:12:25.322Z,1.38
2018-02-04T13:13:25.650Z,1.38
2018-02-04T13:14:25.068Z,1.38
2018-02-04T13:15:25.053Z,1.4
2018-02-04T13:16:24.961Z,1.44
2018-02-04T13:17:24.735Z,1.47
2018-02-04T13:18:24.713Z,1.45
2018-02-04T13:19:24.678Z,1.48
2018-02-04T13:20:24.684Z,1.43
2018-02-04T13:21:24.834Z,1.45
2018-02-04T13:22:24.694Z,1.45
2018-02-04T13:23:24.829Z,1.47
2018-02-04T13:24:24.700Z,1.45